Ping An Song — BOEH — position and weather

sailwx.info

Track history (hours):
 
Tides and Currents Weather Stations Pressure Air Temp Water Temp Dewpoint Dewpoint Depression Visibility Wind Speed Wind Dir Waves Ship Positions

Ping An Song

Last reported at 2018-May-07 09:49 UTC. Time now 2018-May-21 11:20 UTC.
Position N 37°26' E 025°56'.
Warning: this ship's position is 14 days out of date.

Length 180 m; draft 10.5 m.

Type: Cargo ship. MMSI: 413471950.

Date/timePositionNaut miles runAvg speedWind from/ knotsBaromVisibWave heightAir tempDewpointWater temp
2018-May-07 09:49N 37°26' E 025°56'514.5
2018-May-07 09:30N 37°31' E 025°55'  
2018-May-02 08:07N 42°41' E 029°01'214.1
2018-May-02 08:00N 42°40' E 029°02'6113.7
2018-May-02 03:32N 41°39' E 029°15'213.5
2018-May-02 03:23N 41°37' E 029°15'2312.5
2018-May-02 01:33N 41°14' E 029°09'011.7
2018-May-02 01:30N 41°14' E 029°09'31 4.2
2018-May-01 18:07N 40°45' E 028°52'0 1.9
2018-May-01 17:56N 40°46' E 028°52'3 2.0
2018-May-01 16:30N 40°48' E 028°55'1 1.0
2018-May-01 15:48N 40°47' E 028°54'2710.1
2018-May-01 13:08N 40°48' E 028°19'12010.3
2018-May-01 01:31N 39°56' E 025°57'  
2018-Apr-28 20:29N 36°27' E 014°45'611.7
2018-Apr-28 19:57N 36°28' E 014°37'612.1
2018-Apr-28 19:30N 36°29' E 014°30'612.4
2018-Apr-28 19:00N 36°29' E 014°23'613.0
2018-Apr-28 18:30N 36°30' E 014°15'713.3
2018-Apr-28 18:00N 36°32' E 014°06'1013.2
2018-Apr-28 17:15N 36°34' E 013°54'313.1
2018-Apr-28 17:00N 36°35' E 013°51'813.3
2018-Apr-28 16:24N 36°36' E 013°41'513.2
2018-Apr-28 16:00N 36°38' E 013°34'713.3
2018-Apr-28 15:28N 36°39' E 013°26'17913.5
2018-Apr-28 02:15N 37°32' E 009°52'  
Track history (hours):
 
Tides and Currents Weather Stations Pressure Air Temp Water Temp Dewpoint Dewpoint Depression Visibility Wind Speed Wind Dir Waves Ship Positions

Ping An Song

Last reported at 2018-May-07 09:49 UTC. Time now 2018-May-21 11:20 UTC.
Position N 37°26' E 025°56'.
Warning: this ship's position is 14 days out of date.

Length 180 m; draft 10.5 m.

Type: Cargo ship. MMSI: 413471950.

Date/timePositionNaut miles runAvg speedWind from/ knotsBaromVisibWave heightAir tempDewpointWater temp
2018-May-07 09:49N 37°26' E 025°56'514.5
2018-May-07 09:30N 37°31' E 025°55'  
2018-May-02 08:07N 42°41' E 029°01'214.1
2018-May-02 08:00N 42°40' E 029°02'6113.7
2018-May-02 03:32N 41°39' E 029°15'213.5
2018-May-02 03:23N 41°37' E 029°15'2312.5
2018-May-02 01:33N 41°14' E 029°09'011.7
2018-May-02 01:30N 41°14' E 029°09'31 4.2
2018-May-01 18:07N 40°45' E 028°52'0 1.9
2018-May-01 17:56N 40°46' E 028°52'3 2.0
2018-May-01 16:30N 40°48' E 028°55'1 1.0
2018-May-01 15:48N 40°47' E 028°54'2710.1
2018-May-01 13:08N 40°48' E 028°19'12010.3
2018-May-01 01:31N 39°56' E 025°57'  
2018-Apr-28 20:29N 36°27' E 014°45'611.7
2018-Apr-28 19:57N 36°28' E 014°37'612.1
2018-Apr-28 19:30N 36°29' E 014°30'612.4
2018-Apr-28 19:00N 36°29' E 014°23'613.0
2018-Apr-28 18:30N 36°30' E 014°15'713.3
2018-Apr-28 18:00N 36°32' E 014°06'1013.2
2018-Apr-28 17:15N 36°34' E 013°54'313.1
2018-Apr-28 17:00N 36°35' E 013°51'813.3
2018-Apr-28 16:24N 36°36' E 013°41'513.2
2018-Apr-28 16:00N 36°38' E 013°34'713.3
2018-Apr-28 15:28N 36°39' E 013°26'17913.5
2018-Apr-28 02:15N 37°32' E 009°52'  

Dump ship's entire track history